Midland, Pennsylvania
Current Conditions -  °F | °C
As of 8:47 PM on Wednesday 17 Dec 2014 (Local Time) from KBVI Reporting Station
Light Snow Light Snow  
Wind Chill: 20°   Ceiling: 2000
Heat Index: 30°   Visibility: 10mi
Dew Point: 23°   Wind: 13mph
Humidity: 75%   Direction: 290°WNW
Pressure: 30.1"   Gusts: 17mph
Location:  40.63°N, 80.45°W
Report Text: KBVI 180147Z 29011G15KT 10SM -SN OVC020 M01/M05 A3010 RMK LAST
Loading
Personal Weather Stations






























Interactive Weather Map New forecast layout! Learn more

10-Day Weather Forecast

Advertisements
Track Severe Weather on mobile